Fairfield County (LHQ)

 

Airport Diagram
No Airport Diagram Available
Current Weather/Forecast (MVFR Conditions)
METAR KLHQ 071329Z AUTO 30012G18KT 10SM OVC014 08/06 A2997 RMK AO2 T00830061
TAF

Airport Information

All Charts
General
Chart Name View
TAKEOFF MINIMUMS
ALTERNATE MINIMUMS

Arrivals
Chart Name Download
GAILL THREE (RNAV)
GUNNE FOUR
GUNNE FOUR, CONT.1

Approaches
Chart Name Download
RNAV (GPS) RWY 10
RNAV (GPS) RWY 28
VOR OR GPS-A


Airport Statistics
Departures Arrivals Local
All Collected Stats since June 2016: 25 30 11
2021 Stats: 7 6 2
May Stats: 0 0 1

Inbound Traffic (Arrivals) - 0

No inbound traffic.


Outbound Traffic (Departures) - 0

No outbound traffic.


Local Traffic (Pattern) - 0

No local traffic.